Time;durP1;ratioP1;P1;durP2;ratioP2;P2;SDS_P1;SDS_P2;PMS_P1;PMS_P2;Temp;Humidity;BMP_temperature;BMP_pressure;BME280_temperature;BME280_humidity;BME280_pressure;Samples;Min_cycle;Max_cycle;Signal;HPM_P1;HPM_P2
2022/09/21 00:01:13;;;;;;;2.53;1.23;;;19.90;66.30;;;;;;5032726;28;20037;-60
2022/09/21 00:03:40;;;;;;;3.70;1.40;;;19.90;66.20;;;;;;5033230;28;20489;-60
2022/09/21 00:06:07;;;;;;;3.60;1.27;;;19.90;66.80;;;;;;5031745;28;20105;-60
2022/09/21 00:08:33;;;;;;;2.50;1.38;;;19.90;66.30;;;;;;5033035;28;20049;-61
2022/09/21 00:10:59;;;;;;;2.85;1.30;;;19.90;66.20;;;;;;5032768;28;20036;-60
2022/09/21 00:13:32;;;;;;;3.13;1.40;;;19.80;66.20;;;;;;5031848;28;20095;-61
2022/09/21 00:15:58;;;;;;;3.08;1.08;;;19.90;66.20;;;;;;5032472;28;20037;-61
2022/09/21 00:18:24;;;;;;;3.80;1.42;;;19.80;66.10;;;;;;5032769;28;20046;-61
2022/09/21 00:20:51;;;;;;;2.50;1.20;;;19.80;66.10;;;;;;5031887;28;20107;-61
2022/09/21 00:23:17;;;;;;;3.20;1.50;;;19.80;66.10;;;;;;5032574;28;20038;-61
2022/09/21 00:25:45;;;;;;;3.45;1.40;;;19.90;66.20;;;;;;5032816;28;20049;-61
2022/09/21 00:28:11;;;;;;;2.67;1.20;;;19.80;66.10;;;;;;5031710;28;20091;-61
2022/09/21 00:30:37;;;;;;;2.92;1.40;;;19.80;66.10;;;;;;5032196;28;20085;-61
2022/09/21 00:33:06;;;;;;;3.65;1.38;;;19.80;66.10;;;;;;5030464;28;20049;-61
2022/09/21 00:35:32;;;;;;;3.60;1.30;;;19.80;66.10;;;;;;5032416;28;20133;-61
2022/09/21 00:38:01;;;;;;;2.05;1.10;;;19.80;66.10;;;;;;5032648;28;20040;-61
2022/09/21 00:40:27;;;;;;;4.15;1.58;;;19.80;66.10;;;;;;5012745;28;20099;-61
2022/09/21 00:42:53;;;;;;;2.50;1.15;;;19.80;66.10;;;;;;5032550;28;20072;-61
2022/09/21 00:45:21;;;;;;;2.42;1.20;;;19.80;66.10;;;;;;5031769;28;20041;-61
2022/09/21 00:47:49;;;;;;;3.42;1.20;;;19.80;66.10;;;;;;5032006;28;20041;-61
2022/09/21 00:50:19;;;;;;;3.47;1.05;;;19.80;66.00;;;;;;5031825;28;20489;-61
2022/09/21 00:52:50;;;;;;;2.80;1.33;;;19.80;66.00;;;;;;5032063;28;20049;-61
2022/09/21 00:55:32;;;;;;;3.80;1.30;;;19.70;66.00;;;;;;5013738;28;20116;-61
2022/09/21 00:58:00;;;;;;;2.65;1.30;;;19.70;66.00;;;;;;5032459;28;20100;-61
2022/09/21 01:00:26;;;;;;;;;;;19.80;66.00;;;;;;4997798;28;20045;-61
2022/09/21 01:03:00;;;;;;;2.75;1.02;;;19.70;65.90;;;;;;5031477;28;19966;-61
2022/09/21 01:05:26;;;;;;;2.58;1.15;;;19.70;66.00;;;;;;5031988;28;20287;-60
2022/09/21 01:07:51;;;;;;;2.22;1.27;;;19.70;66.00;;;;;;5014158;28;20116;-60
2022/09/21 01:10:17;;;;;;;4.20;1.42;;;19.70;65.90;;;;;;5013546;28;20121;-61
2022/09/21 01:13:04;;;;;;;2.95;1.35;;;19.70;65.90;;;;;;4998428;28;20099;-61
2022/09/21 01:15:58;;;;;;;2.95;1.17;;;19.70;65.90;;;;;;5030724;28;20124;-61
2022/09/21 01:18:34;;;;;;;2.55;1.00;;;19.70;65.80;;;;;;5031826;28;20063;-61
2022/09/21 01:21:05;;;;;;;2.85;1.08;;;19.70;65.90;;;;;;5014409;28;20081;-61
2022/09/21 01:23:39;;;;;;;2.45;1.10;;;19.70;65.90;;;;;;5031139;28;20124;-61
2022/09/21 01:26:21;;;;;;;2.03;1.08;;;19.70;65.90;;;;;;5014836;28;20050;-60
2022/09/21 01:29:11;;;;;;;3.08;1.20;;;19.70;65.90;;;;;;5016254;28;20042;-61
2022/09/21 01:31:48;;;;;;;2.60;1.08;;;19.70;65.90;;;;;;5031571;28;20041;-60
2022/09/21 01:34:25;;;;;;;3.53;1.35;;;19.60;65.80;;;;;;5031845;28;20054;-60
2022/09/21 01:36:56;;;;;;;3.83;1.42;;;19.60;65.90;;;;;;5014907;28;20080;-60
2022/09/21 01:39:22;;;;;;;2.33;1.05;;;19.60;65.80;;;;;;5014227;28;20075;-60
2022/09/21 01:41:47;;;;;;;2.80;1.10;;;19.60;65.80;;;;;;4981587;28;20048;-60
2022/09/21 01:44:16;;;;;;;2.15;1.05;;;19.60;65.80;;;;;;4996573;28;20049;-59
2022/09/21 01:46:42;;;;;;;3.58;1.30;;;19.60;65.80;;;;;;5016881;28;20081;-60
2022/09/21 01:49:12;;;;;;;2.17;1.23;;;19.60;65.90;;;;;;5001406;28;20092;-60
2022/09/21 01:51:42;;;;;;;2.83;1.00;;;19.60;65.80;;;;;;5017432;28;20045;-60
2022/09/21 01:54:27;;;;;;;2.05;1.05;;;19.60;65.80;;;;;;5018329;28;20557;-60
2022/09/21 01:56:56;;;;;;;2.30;1.15;;;19.60;65.80;;;;;;5020472;28;20076;-60
2022/09/21 01:59:37;;;;;;;2.17;1.13;;;19.60;65.80;;;;;;5000369;28;20041;-60
2022/09/21 02:02:27;;;;;;;2.90;1.25;;;19.60;65.70;;;;;;5001249;28;20058;-60
2022/09/21 02:04:53;;;;;;;1.67;0.95;;;19.60;65.80;;;;;;4997450;28;20084;-60
2022/09/21 02:07:19;;;;;;;2.17;1.30;;;19.60;65.80;;;;;;4997447;28;20046;-60
2022/09/21 02:09:46;;;;;;;2.35;1.10;;;19.60;65.70;;;;;;5024669;28;20044;-61
2022/09/21 02:12:12;;;;;;;2.03;1.10;;;19.50;65.60;;;;;;5016663;28;20056;-60
2022/09/21 02:14:37;;;;;;;1.67;0.90;;;19.50;65.70;;;;;;5017211;28;20045;-60
2022/09/21 02:17:24;;;;;;;2.10;1.00;;;19.50;65.60;;;;;;5016962;28;20045;-60
2022/09/21 02:20:16;;;;;;;3.60;1.00;;;19.50;65.60;;;;;;5017312;28;20041;-60
2022/09/21 02:23:00;;;;;;;4.38;1.20;;;19.60;65.70;;;;;;5035042;28;20048;-60
2022/09/21 02:25:50;;;;;;;1.80;0.80;;;19.50;65.60;;;;;;5033736;28;20392;-60
2022/09/21 02:28:23;;;;;;;2.50;0.88;;;19.50;65.60;;;;;;4993562;28;20489;-60
2022/09/21 02:30:59;;;;;;;2.92;1.00;;;19.50;65.60;;;;;;5016862;28;20045;-60
2022/09/21 02:33:31;;;;;;;1.77;1.05;;;19.50;65.60;;;;;;5016161;28;20107;-60
2022/09/21 02:36:07;;;;;;;2.20;1.08;;;19.50;65.60;;;;;;5001233;28;20084;-60
2022/09/21 02:39:04;;;;;;;1.67;1.00;;;19.50;65.50;;;;;;5001140;28;20594;-60
2022/09/21 02:41:44;;;;;;;1.70;0.90;;;19.50;65.60;;;;;;5017588;28;20413;-61
2022/09/21 02:44:15;;;;;;;1.63;0.90;;;19.50;65.50;;;;;;5017440;28;20034;-61
2022/09/21 02:46:53;;;;;;;1.70;0.90;;;19.50;65.50;;;;;;5033579;28;20080;-61
2022/09/21 02:49:25;;;;;;;3.03;0.90;;;19.50;65.50;;;;;;5001010;28;20041;-61
2022/09/21 02:51:51;;;;;;;2.63;1.00;;;19.50;65.50;;;;;;5001026;28;20053;-60
2022/09/21 02:54:21;;;;;;;2.42;0.90;;;19.50;65.50;;;;;;5015813;28;20041;-60
2022/09/21 02:56:47;;;;;;;2.05;1.00;;;19.50;65.50;;;;;;4999573;28;20042;-60
2022/09/21 02:59:13;;;;;;;2.15;0.77;;;19.40;65.50;;;;;;4983574;28;20501;-60
2022/09/21 03:01:42;;;;;;;2.83;1.00;;;19.40;65.40;;;;;;4983060;28;20037;-60
2022/09/21 03:04:08;;;;;;;2.75;1.00;;;19.50;65.50;;;;;;5033790;28;20049;-61
2022/09/21 03:06:34;;;;;;;2.33;0.95;;;19.50;66.10;;;;;;5034393;28;20099;-60
2022/09/21 03:08:59;;;;;;;2.05;1.08;;;19.50;65.50;;;;;;5033231;28;20428;-60
2022/09/21 03:11:25;;;;;;;2.03;1.00;;;19.50;65.50;;;;;;5033751;28;20424;-60
2022/09/21 03:13:50;;;;;;;2.15;0.88;;;19.40;65.40;;;;;;5034356;28;20045;-60
2022/09/21 03:16:16;;;;;;;2.72;0.90;;;19.40;65.30;;;;;;5032419;28;20046;-61
2022/09/21 03:18:43;;;;;;;2.38;0.90;;;19.40;65.40;;;;;;5033748;28;20482;-60
2022/09/21 03:21:09;;;;;;;2.63;0.80;;;19.40;65.40;;;;;;5033674;28;20042;-61
2022/09/21 03:23:35;;;;;;;1.73;0.85;;;19.40;65.40;;;;;;5015238;28;20460;-61
2022/09/21 03:26:01;;;;;;;2.03;0.90;;;19.40;65.40;;;;;;5034121;28;20587;-60
2022/09/21 03:28:26;;;;;;;1.15;0.80;;;19.40;65.30;;;;;;5033814;28;20049;-60
2022/09/21 03:30:52;;;;;;;1.60;0.73;;;19.40;65.30;;;;;;5032149;28;20874;-61
2022/09/21 03:33:18;;;;;;;1.40;0.73;;;19.40;65.30;;;;;;5033167;28;20393;-60
2022/09/21 03:35:44;;;;;;;2.00;0.90;;;19.40;65.40;;;;;;5033554;28;20099;-60
2022/09/21 03:38:15;;;;;;;1.55;0.70;;;19.40;65.30;;;;;;5032755;28;20041;-60
2022/09/21 03:40:45;;;;;;;3.60;0.90;;;19.40;65.30;;;;;;5016109;28;20053;-60
2022/09/21 03:43:13;;;;;;;1.55;0.70;;;19.40;65.30;;;;;;5032264;28;20041;-60
2022/09/21 03:45:40;;;;;;;1.65;0.90;;;19.40;65.20;;;;;;5033293;28;20075;-60
2022/09/21 03:48:15;;;;;;;1.65;0.88;;;19.40;65.30;;;;;;5033409;28;20041;-60
2022/09/21 03:50:41;;;;;;;1.23;0.68;;;19.30;65.80;;;;;;5032935;28;20126;-60
2022/09/21 03:53:08;;;;;;;1.50;0.70;;;19.40;65.20;;;;;;5033194;28;20080;-60
2022/09/21 03:55:33;;;;;;;2.58;0.70;;;19.30;65.20;;;;;;5033254;28;20049;-60
2022/09/21 03:58:04;;;;;;;2.88;0.90;;;19.30;65.20;;;;;;5032248;28;20104;-60
2022/09/21 04:00:33;;;;;;;2.67;0.80;;;19.30;65.10;;;;;;5029457;28;20046;-60
2022/09/21 04:02:58;;;;;;;2.38;0.95;;;19.30;65.10;;;;;;5012963;28;20049;-60
2022/09/21 04:05:24;;;;;;;1.00;0.68;;;19.30;65.00;;;;;;5011583;28;20049;-60
2022/09/21 04:07:49;;;;;;;2.50;0.63;;;19.30;65.10;;;;;;5012621;28;20121;-60
2022/09/21 04:10:17;;;;;;;1.58;0.70;;;19.30;65.00;;;;;;5012648;28;20049;-61
2022/09/21 04:12:46;;;;;;;1.98;0.80;;;19.30;65.20;;;;;;5012337;28;20510;-61
2022/09/21 04:15:20;;;;;;;1.38;0.70;;;19.40;65.30;;;;;;5021051;28;20095;-60
2022/09/21 04:17:46;;;;;;;2.05;0.73;;;19.40;65.30;;;;;;5015100;28;20042;-61
2022/09/21 04:20:11;;;;;;;2.58;0.70;;;19.40;65.30;;;;;;5031759;28;20049;-60
2022/09/21 04:22:37;;;;;;;0.95;0.50;;;19.40;65.20;;;;;;5032930;28;20072;-60
2022/09/21 04:25:04;;;;;;;1.98;0.65;;;19.40;65.20;;;;;;5031863;28;20136;-60
2022/09/21 04:27:32;;;;;;;2.10;0.90;;;19.40;65.20;;;;;;5032349;28;20375;-60
2022/09/21 04:29:58;;;;;;;1.48;0.65;;;19.40;65.20;;;;;;5031601;28;20045;-60
2022/09/21 04:32:24;;;;;;;1.70;0.60;;;19.40;65.20;;;;;;5030929;28;20378;-61
2022/09/21 04:34:50;;;;;;;1.77;0.70;;;19.40;65.20;;;;;;5032799;28;20547;-60
2022/09/21 04:37:15;;;;;;;1.00;0.60;;;19.40;65.20;;;;;;5032427;28;20141;-60
2022/09/21 04:39:41;;;;;;;1.38;0.70;;;19.40;65.10;;;;;;5031657;28;20127;-60
2022/09/21 04:42:07;;;;;;;1.33;0.50;;;19.40;65.10;;;;;;5031928;28;20073;-61
2022/09/21 04:44:36;;;;;;;1.38;0.68;;;19.40;65.10;;;;;;5014431;28;20409;-60
2022/09/21 04:47:01;;;;;;;1.50;0.75;;;19.40;65.00;;;;;;5031766;28;20034;-60
2022/09/21 04:49:30;;;;;;;1.30;0.70;;;19.40;65.00;;;;;;5032126;28;20072;-61
2022/09/21 04:51:55;;;;;;;1.35;0.52;;;19.50;65.00;;;;;;5032539;28;20045;-60
2022/09/21 04:54:21;;;;;;;0.70;0.52;;;19.40;64.90;;;;;;5031490;28;20038;-60
2022/09/21 04:56:49;;;;;;;1.50;0.60;;;19.40;65.00;;;;;;5032293;28;20497;-60
2022/09/21 04:59:15;;;;;;;1.67;0.70;;;19.50;65.00;;;;;;5031554;28;20136;-60
2022/09/21 05:01:40;;;;;;;1.95;0.80;;;19.50;65.00;;;;;;5013197;28;20041;-60
2022/09/21 05:04:06;;;;;;;1.52;0.70;;;19.50;64.90;;;;;;5014132;28;20052;-60
2022/09/21 05:06:32;;;;;;;1.00;0.60;;;19.50;64.90;;;;;;5032079;28;20077;-60
2022/09/21 05:11:42;;;;;;;2.38;0.50;;;19.50;64.80;;;;;;5032341;28;20049;-60
2022/09/21 05:14:08;;;;;;;1.10;0.50;;;19.50;64.90;;;;;;5031638;28;20046;-60
2022/09/21 05:16:33;;;;;;;1.60;0.60;;;19.50;64.80;;;;;;5030974;28;20044;-60
2022/09/21 05:18:59;;;;;;;1.17;0.50;;;19.50;64.80;;;;;;5030910;28;20057;-60
2022/09/21 05:21:28;;;;;;;1.38;0.60;;;19.50;64.80;;;;;;5033816;28;20048;-60
2022/09/21 05:23:53;;;;;;;2.22;0.73;;;19.50;64.80;;;;;;5036357;28;20552;-60
2022/09/21 05:26:19;;;;;;;1.00;0.50;;;19.50;64.70;;;;;;5035736;28;20073;-60
2022/09/21 05:28:45;;;;;;;1.08;0.68;;;19.50;64.70;;;;;;5035273;28;20042;-60
2022/09/21 05:31:18;;;;;;;1.42;0.70;;;19.50;64.70;;;;;;5035095;28;20439;-61
2022/09/21 05:33:56;;;;;;;1.42;0.80;;;19.60;64.80;;;;;;5017990;28;20061;-61
2022/09/21 05:36:33;;;;;;;1.35;0.60;;;19.60;64.80;;;;;;5017680;28;20041;-61
2022/09/21 05:38:59;;;;;;;1.23;0.55;;;19.60;64.80;;;;;;5018042;28;20045;-61
2022/09/21 05:41:25;;;;;;;1.20;0.50;;;19.60;64.70;;;;;;5035691;28;20679;-60
2022/09/21 05:43:51;;;;;;;2.17;0.70;;;19.60;64.70;;;;;;5035198;28;20037;-60
2022/09/21 05:46:31;;;;;;;1.30;0.60;;;19.60;64.70;;;;;;5014138;28;20430;-60
2022/09/21 05:49:43;;;;;;;1.35;0.50;;;19.60;64.70;;;;;;5018923;28;20057;-60
2022/09/21 05:52:16;;;;;;;1.38;0.65;;;19.60;64.70;;;;;;5035717;28;20045;-60
2022/09/21 05:55:17;;;;;;;1.75;0.55;;;19.70;64.80;;;;;;4992992;28;20034;-60
2022/09/21 05:58:00;;;;;;;0.73;0.40;;;19.70;64.80;;;;;;5001006;28;20409;-60
2022/09/21 06:00:26;;;;;;;3.42;0.50;;;19.70;64.80;;;;;;5034789;28;20060;-59
2022/09/21 06:03:29;;;;;;;1.10;0.60;;;19.70;64.80;;;;;;5001366;28;20045;-60
2022/09/21 06:05:55;;;;;;;1.48;0.70;;;19.80;64.90;;;;;;5035383;28;20081;-60
2022/09/21 06:08:21;;;;;;;1.73;0.60;;;19.80;64.80;;;;;;5034606;28;20386;-60
2022/09/21 06:10:49;;;;;;;4.43;0.70;;;19.80;64.90;;;;;;5032844;28;20505;-59
2022/09/21 06:13:15;;;;;;;2.00;0.60;;;19.80;64.90;;;;;;5022913;28;20041;-58
2022/09/21 06:15:43;;;;;;;4.00;0.93;;;19.80;64.90;;;;;;5017803;28;20513;-59
2022/09/21 06:18:09;;;;;;;2.67;0.55;;;19.90;65.00;;;;;;5016202;28;20084;-59
2022/09/21 06:20:35;;;;;;;2.05;0.65;;;19.90;65.10;;;;;;4996474;28;20379;-59
2022/09/21 06:23:02;;;;;;;2.50;0.82;;;19.90;65.00;;;;;;5014977;28;20069;-58
2022/09/21 06:25:27;;;;;;;2.90;0.70;;;19.90;64.40;;;;;;5014234;28;20054;-60
2022/09/21 06:27:53;;;;;;;1.98;0.75;;;19.90;64.30;;;;;;5015337;28;20041;-60
2022/09/21 06:30:19;;;;;;;4.25;0.70;;;19.90;64.30;;;;;;5014145;28;20095;-59
2022/09/21 06:32:44;;;;;;;6.65;0.75;;;19.90;64.40;;;;;;5013823;28;20054;-59
2022/09/21 06:35:10;;;;;;;2.40;0.88;;;20.00;64.50;;;;;;5014729;28;20046;-58
2022/09/21 06:37:38;;;;;;;2.67;0.75;;;20.00;64.50;;;;;;5025275;28;20057;-60
2022/09/21 06:40:05;;;;;;;2.05;0.70;;;20.00;64.60;;;;;;5030482;28;20059;-60
2022/09/21 06:42:30;;;;;;;3.22;0.80;;;20.00;64.70;;;;;;5024277;28;20109;-59
2022/09/21 06:44:56;;;;;;;4.03;0.70;;;20.00;64.80;;;;;;5026153;28;20120;-59
2022/09/21 06:47:21;;;;;;;1.77;0.70;;;20.10;64.90;;;;;;5032749;28;20087;-59
2022/09/21 06:49:47;;;;;;;3.65;0.55;;;20.10;65.00;;;;;;5022561;28;20053;-63
2022/09/21 06:52:13;;;;;;;3.05;0.70;;;20.10;65.00;;;;;;5014273;28;20122;-60
2022/09/21 06:54:39;;;;;;;8.32;0.70;;;20.20;65.00;;;;;;5013378;28;20042;-59
2022/09/21 06:57:08;;;;;;;1.52;0.70;;;20.20;64.90;;;;;;5013263;28;20050;-58
2022/09/21 06:59:35;;;;;;;4.13;0.70;;;20.20;65.00;;;;;;4996382;28;20497;-59
2022/09/21 07:02:01;;;;;;;4.85;0.70;;;20.20;64.90;;;;;;5013805;28;20034;-59
2022/09/21 07:04:28;;;;;;;1.92;0.80;;;20.20;64.90;;;;;;5014175;28;20061;-59
2022/09/21 07:06:54;;;;;;;4.32;0.70;;;20.30;64.90;;;;;;5013954;28;20092;-59
2022/09/21 07:09:22;;;;;;;2.28;0.47;;;20.30;64.90;;;;;;5014364;28;20121;-59
2022/09/21 07:11:48;;;;;;;2.60;0.65;;;20.30;64.90;;;;;;5014284;28;20037;-60
2022/09/21 07:14:14;;;;;;;6.18;0.75;;;20.30;64.80;;;;;;5013362;28;20353;-60
2022/09/21 07:16:40;;;;;;;1.70;0.70;;;20.30;64.80;;;;;;5014221;28;20049;-59
2022/09/21 07:19:05;;;;;;;1.65;0.70;;;20.30;64.80;;;;;;5014263;28;20081;-60
2022/09/21 07:21:31;;;;;;;4.72;0.60;;;20.30;64.80;;;;;;5013286;28;20120;-59
2022/09/21 07:23:59;;;;;;;2.83;0.80;;;20.30;64.80;;;;;;5014193;28;20457;-59
2022/09/21 07:26:25;;;;;;;4.13;0.60;;;20.30;64.80;;;;;;5013627;28;20038;-59
2022/09/21 07:28:50;;;;;;;1.63;0.50;;;20.40;64.90;;;;;;5013311;28;20427;-59
2022/09/21 07:31:16;;;;;;;3.60;0.80;;;20.40;64.90;;;;;;5013037;28;20064;-60
2022/09/21 07:33:42;;;;;;;4.18;0.73;;;20.40;65.00;;;;;;5013764;28;20138;-59
2022/09/21 07:36:11;;;;;;;4.35;0.75;;;20.40;65.00;;;;;;5012878;28;20152;-59
2022/09/21 07:38:38;;;;;;;4.28;0.73;;;20.40;65.10;;;;;;4996780;28;20046;-59
2022/09/21 07:41:07;;;;;;;2.25;0.70;;;20.50;65.10;;;;;;4996060;28;20049;-59
2022/09/21 07:43:33;;;;;;;2.15;0.80;;;20.50;65.20;;;;;;5012356;28;20042;-59
2022/09/21 07:46:00;;;;;;;3.22;0.80;;;20.50;65.20;;;;;;5013263;28;20053;-59
2022/09/21 07:48:27;;;;;;;2.17;0.68;;;20.50;65.20;;;;;;5013412;28;20050;-60
2022/09/21 07:50:53;;;;;;;3.53;0.70;;;20.60;65.20;;;;;;5013069;28;20076;-60
2022/09/21 07:53:19;;;;;;;2.15;0.80;;;20.60;65.30;;;;;;5013650;28;20040;-60
2022/09/21 07:55:45;;;;;;;3.42;0.80;;;20.60;65.30;;;;;;5013541;28;20410;-60
2022/09/21 08:01:05;;;;;;;2.53;0.70;;;20.60;65.30;;;;;;5022682;28;20132;-60
2022/09/21 08:03:30;;;;;;;1.55;0.70;;;20.70;65.30;;;;;;5032332;28;20130;-61
2022/09/21 08:05:58;;;;;;;3.10;0.95;;;20.70;65.30;;;;;;5033018;28;20183;-60
2022/09/21 08:08:24;;;;;;;3.33;0.75;;;20.70;65.30;;;;;;5033164;28;20124;-60
2022/09/21 08:10:51;;;;;;;1.70;0.70;;;20.70;65.20;;;;;;5032373;28;20049;-60
2022/09/21 08:13:17;;;;;;;2.83;0.77;;;20.70;65.20;;;;;;5032790;28;20512;-60
2022/09/21 08:15:43;;;;;;;2.75;0.95;;;20.70;65.30;;;;;;5032581;28;20046;-62
2022/09/21 08:18:09;;;;;;;1.50;0.80;;;20.70;65.00;;;;;;5031415;28;20547;-61
2022/09/21 08:20:34;;;;;;;2.90;1.10;;;20.70;64.50;;;;;;5032664;28;20045;-61
2022/09/21 08:23:01;;;;;;;4.60;1.10;;;20.70;64.90;;;;;;5032476;28;20045;-60
2022/09/21 08:25:26;;;;;;;4.93;0.98;;;20.80;64.20;;;;;;5031923;28;20053;-60
2022/09/21 08:27:57;;;;;;;3.38;1.02;;;20.80;64.20;;;;;;5032896;28;20037;-60
2022/09/21 08:30:22;;;;;;;3.67;1.05;;;20.80;64.30;;;;;;5032041;28;20512;-60
2022/09/21 08:32:48;;;;;;;3.60;1.10;;;20.80;64.30;;;;;;5031434;28;20053;-60
2022/09/21 08:35:13;;;;;;;3.38;1.13;;;20.90;64.40;;;;;;5032308;28;20520;-61
2022/09/21 08:37:39;;;;;;;2.42;1.20;;;20.90;64.50;;;;;;5032536;28;20097;-60
2022/09/21 08:40:06;;;;;;;3.20;1.00;;;20.90;64.50;;;;;;5031550;28;20081;-60
2022/09/21 08:42:38;;;;;;;2.88;1.13;;;20.90;64.50;;;;;;5014822;28;20049;-60
2022/09/21 08:45:12;;;;;;;3.70;1.00;;;20.90;64.60;;;;;;5032174;28;20045;-60
2022/09/21 08:47:48;;;;;;;3.33;1.00;;;20.90;64.70;;;;;;4997331;28;20048;-60
2022/09/21 08:50:32;;;;;;;3.53;1.10;;;20.90;64.70;;;;;;4999327;28;20124;-59
2022/09/21 08:53:16;;;;;;;2.95;1.05;;;21.00;64.70;;;;;;5014033;28;20052;-60
2022/09/21 08:55:42;;;;;;;2.15;0.82;;;21.00;64.70;;;;;;4999808;28;20045;-61
2022/09/21 08:58:28;;;;;;;3.65;1.08;;;21.00;64.60;;;;;;5031580;28;20443;-61
2022/09/21 09:01:04;;;;;;;3.03;0.93;;;21.00;64.40;;;;;;4998833;28;20052;-60
2022/09/21 09:03:54;;;;;;;4.22;1.20;;;21.00;64.30;;;;;;5031841;28;20046;-60
2022/09/21 09:06:41;;;;;;;4.45;1.15;;;21.00;64.30;;;;;;5031347;28;20049;-61
2022/09/21 09:09:09;;;;;;;5.25;1.40;;;21.00;64.50;;;;;;5013919;28;20081;-61
2022/09/21 09:11:51;;;;;;;8.40;2.20;;;21.00;64.50;;;;;;5031915;28;20046;-60
2022/09/21 09:14:17;;;;;;;7.97;2.03;;;21.00;64.50;;;;;;5030682;28;20049;-60
2022/09/21 09:16:42;;;;;;;9.75;1.88;;;21.10;64.40;;;;;;5031957;28;20436;-61
2022/09/21 09:19:45;;;;;;;6.53;2.30;;;21.10;64.50;;;;;;5024007;28;20795;-59
2022/09/21 09:22:14;;;;;;;9.45;1.95;;;21.10;64.50;;;;;;4999216;28;20046;-59
2022/09/21 09:24:52;;;;;;;5.85;1.95;;;21.10;64.50;;;;;;5002071;28;20038;-60
2022/09/21 09:27:21;;;;;;;6.78;1.85;;;21.10;64.60;;;;;;5011205;28;20037;-60
2022/09/21 09:30:02;;;;;;;8.20;2.50;;;21.10;64.60;;;;;;4992843;28;20056;-60
2022/09/21 09:32:33;;;;;;;7.07;2.08;;;21.10;64.60;;;;;;5011411;28;20050;-60
2022/09/21 09:35:11;;;;;;;7.65;2.20;;;21.10;64.50;;;;;;5009249;28;20405;-60
2022/09/21 09:37:37;;;;;;;;;;;21.10;64.30;;;;;;5011820;28;20042;-60
2022/09/21 09:40:03;;;;;;;10.38;2.20;;;21.10;64.40;;;;;;5011464;28;19980;-60
2022/09/21 09:42:53;;;;;;;6.93;1.75;;;21.10;64.40;;;;;;4991909;28;20045;-60
2022/09/21 09:45:57;;;;;;;7.13;1.70;;;21.10;64.40;;;;;;4993815;28;20073;-60
2022/09/21 09:48:35;;;;;;;5.82;1.60;;;21.10;64.40;;;;;;4954669;28;20058;-60
2022/09/21 09:51:00;;;;;;;;;;;21.10;64.40;;;;;;4995449;28;20050;-60
2022/09/21 09:53:26;;;;;;;6.97;1.92;;;21.10;64.50;;;;;;5011699;28;20353;-59
2022/09/21 09:55:53;;;;;;;7.72;1.75;;;21.10;64.40;;;;;;4993940;28;20112;-59
2022/09/21 09:58:22;;;;;;;8.27;1.85;;;21.10;64.30;;;;;;5011822;28;20050;-59
2022/09/21 10:00:51;;;;;;;4.97;1.63;;;21.10;64.30;;;;;;5011365;28;20052;-60
2022/09/21 10:03:22;;;;;;;4.03;1.77;;;21.10;64.30;;;;;;4993736;28;20060;-60
2022/09/21 10:05:47;;;;;;;4.85;1.67;;;21.10;64.30;;;;;;5011824;28;20057;-60
2022/09/21 10:08:26;;;;;;;4.95;1.73;;;21.10;64.30;;;;;;5015335;28;20038;-60
2022/09/21 10:10:51;;;;;;;7.75;1.60;;;21.20;64.30;;;;;;5015058;28;20051;-60
2022/09/21 10:13:29;;;;;;;7.75;1.45;;;21.20;64.30;;;;;;5014951;28;20070;-59
2022/09/21 10:15:57;;;;;;;5.72;1.73;;;21.20;64.20;;;;;;5015241;28;20057;-59
2022/09/21 10:18:39;;;;;;;5.93;1.45;;;21.10;64.20;;;;;;5014369;28;20124;-60
2022/09/21 10:21:24;;;;;;;4.63;1.58;;;21.20;64.20;;;;;;4997913;28;20045;-60
2022/09/21 10:23:58;;;;;;;5.90;1.55;;;21.20;64.30;;;;;;4996919;28;20486;-60
2022/09/21 10:26:24;;;;;;;6.70;1.45;;;21.20;64.20;;;;;;4996927;28;20050;-60
2022/09/21 10:29:00;;;;;;;4.95;1.35;;;21.20;64.20;;;;;;4997361;28;20046;-63
2022/09/21 10:31:27;;;;;;;6.18;1.63;;;21.20;64.20;;;;;;5005348;28;20049;-60
2022/09/21 10:34:13;;;;;;;5.60;1.30;;;21.20;64.20;;;;;;5008027;28;20049;-60
2022/09/21 10:36:39;;;;;;;4.95;1.70;;;21.20;64.20;;;;;;5029512;28;20080;-60
2022/09/21 10:39:33;;;;;;;6.43;1.30;;;21.20;64.20;;;;;;5033707;28;20183;-60
2022/09/21 10:42:13;;;;;;;7.65;1.35;;;21.20;64.10;;;;;;5028831;28;20060;-60
2022/09/21 10:44:43;;;;;;;6.07;1.48;;;21.20;64.10;;;;;;5016940;28;20045;-60
2022/09/21 10:47:35;;;;;;;4.55;1.48;;;21.20;64.10;;;;;;4999861;28;20383;-60
2022/09/21 10:50:03;;;;;;;6.35;1.60;;;21.30;64.10;;;;;;5019072;28;20048;-60
2022/09/21 10:52:38;;;;;;;3.88;1.23;;;21.30;64.10;;;;;;5015798;28;20042;-60
2022/09/21 10:55:04;;;;;;;3.63;1.27;;;21.30;64.10;;;;;;5017420;28;20041;-60
2022/09/21 10:57:31;;;;;;;7.30;1.58;;;21.30;64.10;;;;;;5016571;28;20120;-60
2022/09/21 10:59:57;;;;;;;4.45;1.20;;;21.30;64.10;;;;;;5003914;28;20045;-60
2022/09/21 11:02:45;;;;;;;5.25;1.40;;;21.30;64.10;;;;;;5007005;28;20088;-60
2022/09/21 11:05:14;;;;;;;4.50;1.67;;;21.30;64.30;;;;;;5021705;28;20042;-60
2022/09/21 11:07:50;;;;;;;5.05;1.30;;;21.30;64.30;;;;;;5014653;28;20103;-60
2022/09/21 11:10:23;;;;;;;5.22;1.48;;;21.40;65.10;;;;;;5015961;28;20053;-60
2022/09/21 11:13:07;;;;;;;6.70;1.38;;;21.40;64.50;;;;;;5000733;28;20045;-61
2022/09/21 11:15:48;;;;;;;5.40;1.33;;;21.40;64.60;;;;;;5033367;28;20397;-61
2022/09/21 11:18:57;;;;;;;4.05;1.27;;;21.40;64.60;;;;;;5032263;28;20119;-60
2022/09/21 11:21:29;;;;;;;3.13;1.00;;;21.40;64.60;;;;;;5015414;28;20077;-60
2022/09/21 11:24:05;;;;;;;4.03;1.02;;;21.40;64.70;;;;;;5016272;28;20124;-60
2022/09/21 11:27:05;;;;;;;4.93;1.30;;;21.40;64.70;;;;;;4999747;28;20057;-60
2022/09/21 11:30:02;;;;;;;5.40;1.13;;;21.40;64.80;;;;;;5033016;28;20140;-60
2022/09/21 11:32:56;;;;;;;4.00;1.20;;;21.40;64.90;;;;;;5015260;28;20103;-61
2022/09/21 11:35:30;;;;;;;5.43;1.02;;;21.40;65.00;;;;;;4989087;28;20083;-61
2022/09/21 11:38:12;;;;;;;4.50;1.15;;;21.40;65.00;;;;;;5033886;28;20493;-60
2022/09/21 11:41:07;;;;;;;5.95;1.10;;;21.40;65.00;;;;;;5032322;28;20069;-60
2022/09/21 11:44:00;;;;;;;3.83;0.93;;;21.50;65.00;;;;;;5023853;28;20049;-61
2022/09/21 11:46:35;;;;;;;3.42;1.25;;;21.50;65.00;;;;;;4994408;28;20136;-60
2022/09/21 11:49:26;;;;;;;3.92;1.33;;;21.50;65.00;;;;;;4995037;28;20482;-60
2022/09/21 11:52:09;;;;;;;3.28;1.10;;;21.50;65.00;;;;;;5012907;28;20050;-60
2022/09/21 11:54:59;;;;;;;2.97;0.93;;;21.50;65.00;;;;;;4980159;28;20046;-60
2022/09/21 11:57:30;;;;;;;3.70;1.20;;;21.50;65.10;;;;;;5014689;28;20042;-59
2022/09/21 12:00:20;;;;;;;4.07;0.95;;;21.50;65.10;;;;;;5014496;28;20548;-60
2022/09/21 12:03:03;;;;;;;4.25;0.88;;;21.50;65.00;;;;;;5016623;28;20092;-60
2022/09/21 12:05:49;;;;;;;4.38;1.15;;;21.50;65.00;;;;;;5015734;28;20486;-61
2022/09/21 12:08:45;;;;;;;3.95;0.90;;;21.50;65.00;;;;;;5032932;28;20080;-60
2022/09/21 12:11:21;;;;;;;3.85;1.05;;;21.50;64.90;;;;;;5014483;28;20504;-61
2022/09/21 12:13:53;;;;;;;4.75;0.93;;;21.50;64.90;;;;;;5033289;28;20092;-62
2022/09/21 12:16:32;;;;;;;2.65;0.80;;;21.60;64.80;;;;;;5030992;28;20405;-60
2022/09/21 12:19:32;;;;;;;2.22;0.70;;;21.60;64.80;;;;;;5015903;28;20082;-60
2022/09/21 12:22:26;;;;;;;3.05;0.88;;;21.60;64.90;;;;;;5015440;28;20085;-60
2022/09/21 12:24:55;;;;;;;2.38;0.90;;;21.60;64.80;;;;;;4984727;28;20099;-60
2022/09/21 12:27:42;;;;;;;5.55;0.90;;;21.60;64.80;;;;;;5015234;28;20076;-59
2022/09/21 12:30:16;;;;;;;3.63;0.88;;;21.60;64.70;;;;;;5015806;28;20041;-60
2022/09/21 12:32:54;;;;;;;4.65;0.85;;;21.60;64.60;;;;;;5031546;28;20057;-59
2022/09/21 12:35:40;;;;;;;7.82;0.90;;;21.60;64.50;;;;;;5012448;28;20049;-60
2022/09/21 12:38:29;;;;;;;7.90;0.80;;;21.60;64.50;;;;;;5010223;28;20049;-60
2022/09/21 12:40:54;;;;;;;8.65;1.38;;;21.60;64.50;;;;;;5025320;28;20092;-61
2022/09/21 12:43:50;;;;;;;9.48;1.20;;;21.60;64.50;;;;;;5012106;28;20133;-61
2022/09/21 12:46:32;;;;;;;5.57;1.00;;;21.60;64.60;;;;;;5012032;28;20046;-61
2022/09/21 12:48:59;;;;;;;11.13;1.80;;;21.60;64.70;;;;;;5020709;28;20045;-60
2022/09/21 12:51:32;;;;;;;7.22;1.20;;;21.70;64.80;;;;;;4996859;28;20119;-61
2022/09/21 12:54:36;;;;;;;5.38;1.13;;;21.70;64.80;;;;;;5019526;28;20041;-62
2022/09/21 12:57:30;;;;;;;5.15;0.90;;;21.70;65.00;;;;;;5017519;28;20088;-61
2022/09/21 13:00:02;;;;;;;7.30;1.10;;;21.70;64.80;;;;;;5025230;28;20157;-60
2022/09/21 13:02:36;;;;;;;4.10;0.80;;;21.70;64.70;;;;;;5010870;28;20113;-60
2022/09/21 13:05:20;;;;;;;4.45;1.00;;;21.80;64.70;;;;;;5012316;28;20080;-60
2022/09/21 13:08:04;;;;;;;4.10;0.80;;;21.80;64.50;;;;;;5021214;28;20074;-60
2022/09/21 13:10:38;;;;;;;5.60;0.80;;;21.80;64.40;;;;;;5002384;28;20041;-60
2022/09/21 13:13:07;;;;;;;7.35;1.00;;;21.90;64.40;;;;;;5013724;28;20609;-61
2022/09/21 13:15:44;;;;;;;7.72;0.90;;;21.90;64.40;;;;;;5010951;28;20038;-61
2022/09/21 13:18:21;;;;;;;4.57;0.80;;;21.90;64.40;;;;;;5010396;28;20124;-62
2022/09/21 13:20:47;;;;;;;7.47;1.47;;;21.90;64.50;;;;;;5009589;28;20053;-61